createdAt,value
2018-05-26T00:00:49.468Z,1017.56
2018-05-26T00:01:49.464Z,1017.54
2018-05-26T00:02:49.466Z,1017.52
2018-05-26T00:03:49.462Z,1017.53
2018-05-26T00:04:49.467Z,1017.54
2018-05-26T00:05:49.464Z,1017.54
2018-05-26T00:06:49.465Z,1017.54
2018-05-26T00:07:49.461Z,1017.54
2018-05-26T00:08:49.465Z,1017.51
2018-05-26T00:09:49.465Z,1017.55
2018-05-26T00:10:49.465Z,1017.56
2018-05-26T00:11:49.464Z,1017.55
2018-05-26T00:12:49.465Z,1017.54
2018-05-26T00:13:49.464Z,1017.54
2018-05-26T00:14:49.467Z,1017.55
2018-05-26T00:15:49.462Z,1017.54
2018-05-26T00:16:49.468Z,1017.54
2018-05-26T00:17:49.465Z,1017.56
2018-05-26T00:18:49.466Z,1017.55
2018-05-26T00:19:49.465Z,1017.61
2018-05-26T00:20:49.464Z,1017.60
2018-05-26T00:21:49.466Z,1017.58
2018-05-26T00:22:49.466Z,1017.59
2018-05-26T00:23:49.464Z,1017.59
2018-05-26T00:24:49.464Z,1017.63
2018-05-26T00:25:49.474Z,1017.62
2018-05-26T00:26:49.464Z,1017.62
2018-05-26T00:27:49.469Z,1017.62
2018-05-26T00:28:49.463Z,1017.65
2018-05-26T00:29:49.469Z,1017.64
2018-05-26T00:30:49.467Z,1017.65
2018-05-26T00:31:49.463Z,1017.63
2018-05-26T00:32:49.464Z,1017.67
2018-05-26T00:33:49.468Z,1017.66
2018-05-26T00:34:49.470Z,1017.64
2018-05-26T00:35:49.466Z,1017.66
2018-05-26T00:36:49.466Z,1017.62
2018-05-26T00:37:49.461Z,1017.61
2018-05-26T00:38:49.465Z,1017.62
2018-05-26T00:39:49.466Z,1017.59
2018-05-26T00:40:49.467Z,1017.62
2018-05-26T00:41:49.466Z,1017.59
2018-05-26T00:42:49.467Z,1017.63
2018-05-26T00:43:49.466Z,1017.61
2018-05-26T00:44:49.466Z,1017.60
2018-05-26T00:45:49.465Z,1017.63
2018-05-26T00:46:49.471Z,1017.61
2018-05-26T00:47:49.465Z,1017.58
2018-05-26T00:48:49.465Z,1017.55
2018-05-26T00:49:49.465Z,1017.54
2018-05-26T00:50:49.467Z,1017.51
2018-05-26T00:51:49.466Z,1017.51
2018-05-26T00:52:49.462Z,1017.51
2018-05-26T00:53:49.468Z,1017.52
2018-05-26T00:54:49.465Z,1017.52
2018-05-26T00:55:49.465Z,1017.52
2018-05-26T00:56:49.465Z,1017.56
2018-05-26T00:57:49.466Z,1017.57
2018-05-26T00:58:49.465Z,1017.55
2018-05-26T00:59:49.465Z,1017.58
2018-05-26T01:00:49.470Z,1017.54
2018-05-26T01:01:49.466Z,1017.56
2018-05-26T01:02:49.474Z,1017.54
2018-05-26T01:03:49.469Z,1017.55
2018-05-26T01:04:49.464Z,1017.49
2018-05-26T01:05:49.466Z,1017.53
2018-05-26T01:06:49.466Z,1017.53
2018-05-26T01:07:49.463Z,1017.50
2018-05-26T01:08:49.462Z,1017.49
2018-05-26T01:09:49.463Z,1017.50
2018-05-26T01:10:49.467Z,1017.52
2018-05-26T01:11:49.463Z,1017.50
2018-05-26T01:12:49.466Z,1017.49
2018-05-26T01:13:49.462Z,1017.47
2018-05-26T01:14:49.462Z,1017.49
2018-05-26T01:15:49.461Z,1017.47
2018-05-26T01:16:49.464Z,1017.49
2018-05-26T01:17:49.460Z,1017.53
2018-05-26T01:18:49.465Z,1017.55
2018-05-26T01:19:49.460Z,1017.56
2018-05-26T01:20:49.461Z,1017.51
2018-05-26T01:21:49.459Z,1017.56
2018-05-26T01:22:49.460Z,1017.58
2018-05-26T01:23:49.458Z,1017.59
2018-05-26T01:24:49.459Z,1017.58
2018-05-26T01:25:49.458Z,1017.57
2018-05-26T01:26:49.466Z,1017.62
2018-05-26T01:27:49.457Z,1017.62
2018-05-26T01:28:49.462Z,1017.60
2018-05-26T01:29:49.458Z,1017.61
2018-05-26T01:30:49.458Z,1017.59
2018-05-26T01:31:49.462Z,1017.61
2018-05-26T01:32:49.451Z,1017.56
2018-05-26T01:33:49.455Z,1017.59
2018-05-26T01:34:49.456Z,1017.58
2018-05-26T01:35:49.454Z,1017.56
2018-05-26T01:36:49.449Z,1017.60
2018-05-26T01:37:49.454Z,1017.62
2018-05-26T01:38:49.451Z,1017.64
2018-05-26T01:39:49.451Z,1017.64
2018-05-26T01:40:49.449Z,1017.72
2018-05-26T01:41:49.456Z,1017.72
2018-05-26T01:42:49.450Z,1017.72
2018-05-26T01:43:49.447Z,1017.75
2018-05-26T01:44:49.449Z,1017.73
2018-05-26T01:45:49.455Z,1017.72
2018-05-26T01:46:49.453Z,1017.71
2018-05-26T01:47:49.444Z,1017.71
2018-05-26T01:48:49.447Z,1017.70
2018-05-26T01:49:49.442Z,1017.72
2018-05-26T01:50:49.443Z,1017.72
2018-05-26T01:51:49.440Z,1017.71
2018-05-26T01:52:49.442Z,1017.75
2018-05-26T01:53:49.440Z,1017.77
2018-05-26T01:54:49.442Z,1017.78
2018-05-26T01:55:49.438Z,1017.74
2018-05-26T01:56:49.436Z,1017.74
2018-05-26T01:57:49.435Z,1017.70
2018-05-26T01:58:49.442Z,1017.73
2018-05-26T01:59:49.440Z,1017.71
2018-05-26T02:00:49.432Z,1017.75
2018-05-26T02:01:49.434Z,1017.75
2018-05-26T02:02:49.433Z,1017.76
2018-05-26T02:03:49.424Z,1017.77
2018-05-26T02:04:49.427Z,1017.77
2018-05-26T02:05:49.426Z,1017.73
2018-05-26T02:06:49.430Z,1017.76
2018-05-26T02:07:49.434Z,1017.73
2018-05-26T02:08:49.425Z,1017.71
2018-05-26T02:09:49.424Z,1017.69
2018-05-26T02:10:49.424Z,1017.66
2018-05-26T02:11:49.423Z,1017.66
2018-05-26T02:12:49.422Z,1017.65
2018-05-26T02:13:49.422Z,1017.64
2018-05-26T02:14:49.421Z,1017.66
2018-05-26T02:15:49.420Z,1017.72
2018-05-26T02:16:49.416Z,1017.71
2018-05-26T02:17:49.415Z,1017.71
2018-05-26T02:18:49.416Z,1017.70
2018-05-26T02:19:49.411Z,1017.72
2018-05-26T02:20:49.412Z,1017.73
2018-05-26T02:21:49.411Z,1017.71
2018-05-26T02:22:49.412Z,1017.70
2018-05-26T02:23:49.408Z,1017.67
2018-05-26T02:24:49.408Z,1017.67
2018-05-26T02:25:49.406Z,1017.67
2018-05-26T02:26:49.426Z,1017.66
2018-05-26T02:27:49.406Z,1017.63
2018-05-26T02:28:49.402Z,1017.63
2018-05-26T02:29:49.403Z,1017.67
2018-05-26T02:30:49.399Z,1017.67
2018-05-26T02:31:49.399Z,1017.68
2018-05-26T02:32:49.395Z,1017.71
2018-05-26T02:33:49.395Z,1017.73
2018-05-26T02:34:49.404Z,1017.65
2018-05-26T02:35:49.394Z,1017.66
2018-05-26T02:36:49.393Z,1017.69
2018-05-26T02:37:49.393Z,1017.78
2018-05-26T02:38:49.390Z,1017.78
2018-05-26T02:39:49.390Z,1017.77
2018-05-26T02:40:49.388Z,1017.83
2018-05-26T02:41:49.390Z,1017.82
2018-05-26T02:42:49.382Z,1017.84
2018-05-26T02:43:49.383Z,1017.80
2018-05-26T02:44:49.384Z,1017.81
2018-05-26T02:45:49.383Z,1017.80
2018-05-26T02:46:49.381Z,1017.82
2018-05-26T02:47:49.378Z,1017.80
2018-05-26T02:48:49.378Z,1017.77
2018-05-26T02:49:49.376Z,1017.76
2018-05-26T02:50:49.379Z,1017.78
2018-05-26T02:51:49.377Z,1017.75
2018-05-26T02:52:49.371Z,1017.75
2018-05-26T02:53:49.370Z,1017.74
2018-05-26T02:54:49.373Z,1017.73
2018-05-26T02:55:49.363Z,1017.77
2018-05-26T02:56:49.365Z,1017.71
2018-05-26T02:57:49.365Z,1017.72
2018-05-26T02:58:49.361Z,1017.73
2018-05-26T02:59:49.358Z,1017.78
2018-05-26T03:00:49.358Z,1017.71
2018-05-26T03:01:49.361Z,1017.73
2018-05-26T03:02:49.366Z,1017.74
2018-05-26T03:03:49.363Z,1017.73
2018-05-26T03:04:49.354Z,1017.71
2018-05-26T03:05:49.354Z,1017.77
2018-05-26T03:06:49.352Z,1017.73
2018-05-26T03:07:49.344Z,1017.73
2018-05-26T03:08:49.346Z,1017.75
2018-05-26T03:09:49.351Z,1017.70
2018-05-26T03:10:49.347Z,1017.71
2018-05-26T03:11:49.351Z,1017.71
2018-05-26T03:12:49.344Z,1017.72
2018-05-26T03:13:49.343Z,1017.71
2018-05-26T03:14:49.343Z,1017.75
2018-05-26T03:15:49.343Z,1017.77
2018-05-26T03:16:49.339Z,1017.80
2018-05-26T03:17:49.337Z,1017.78
2018-05-26T03:18:49.365Z,1017.81
2018-05-26T03:19:49.339Z,1017.81
2018-05-26T03:20:49.332Z,1017.82
2018-05-26T03:21:49.335Z,1017.80
2018-05-26T03:22:49.333Z,1017.82
2018-05-26T03:23:49.327Z,1017.79
2018-05-26T03:24:49.328Z,1017.81
2018-05-26T03:25:49.329Z,1017.81
2018-05-26T03:26:49.326Z,1017.74
2018-05-26T03:27:49.325Z,1017.77
2018-05-26T03:28:49.324Z,1017.80
2018-05-26T03:29:49.320Z,1017.80
2018-05-26T03:30:49.320Z,1017.79
2018-05-26T03:31:49.323Z,1017.81
2018-05-26T03:32:49.312Z,1017.82
2018-05-26T03:33:49.311Z,1017.84
2018-05-26T03:34:49.314Z,1017.84
2018-05-26T03:35:49.312Z,1017.85
2018-05-26T03:36:49.311Z,1017.87
2018-05-26T03:37:49.309Z,1017.86
2018-05-26T03:38:49.309Z,1017.83
2018-05-26T03:39:49.306Z,1017.86
2018-05-26T03:40:49.309Z,1017.91
2018-05-26T03:41:49.312Z,1017.91
2018-05-26T03:42:49.309Z,1017.87
2018-05-26T03:43:49.302Z,1017.92
2018-05-26T03:44:49.303Z,1017.88
2018-05-26T03:45:49.302Z,1017.89
2018-05-26T03:46:49.295Z,1017.88
2018-05-26T03:47:49.298Z,1017.90
2018-05-26T03:48:49.296Z,1017.90
2018-05-26T03:49:49.295Z,1017.89
2018-05-26T03:50:49.295Z,1017.86
2018-05-26T03:51:49.292Z,1017.86
2018-05-26T03:52:49.293Z,1017.85
2018-05-26T03:53:49.295Z,1017.86
2018-05-26T03:54:49.290Z,1017.85
2018-05-26T03:55:49.287Z,1017.85
2018-05-26T03:56:49.287Z,1017.82
2018-05-26T03:57:49.286Z,1017.84
2018-05-26T03:58:49.283Z,1017.83
2018-05-26T03:59:49.280Z,1017.91
2018-05-26T04:00:49.286Z,1017.91
2018-05-26T04:01:49.281Z,1017.92
2018-05-26T04:02:49.281Z,1017.91
2018-05-26T04:03:49.280Z,1017.91
2018-05-26T04:04:49.277Z,1017.93
2018-05-26T04:05:49.288Z,1017.97
2018-05-26T04:06:49.279Z,1017.95
2018-05-26T04:07:49.273Z,1017.96
2018-05-26T04:08:49.274Z,1018.02
2018-05-26T04:09:49.273Z,1018.03
2018-05-26T04:10:49.272Z,1018.03
2018-05-26T04:11:49.273Z,1018.06
2018-05-26T04:12:49.268Z,1018.13
2018-05-26T04:13:49.270Z,1018.13
2018-05-26T04:14:49.270Z,1018.16
2018-05-26T04:15:49.270Z,1018.16
2018-05-26T04:16:49.270Z,1018.13
2018-05-26T04:17:49.270Z,1018.17
2018-05-26T04:18:49.267Z,1018.18
2018-05-26T04:19:49.265Z,1018.17
2018-05-26T04:20:49.270Z,1018.19
2018-05-26T04:21:49.270Z,1018.24
2018-05-26T04:22:49.267Z,1018.20
2018-05-26T04:23:49.266Z,1018.24
2018-05-26T04:24:49.265Z,1018.25
2018-05-26T04:25:49.275Z,1018.27
2018-05-26T04:26:49.263Z,1018.30
2018-05-26T04:27:49.263Z,1018.27
2018-05-26T04:28:49.265Z,1018.30
2018-05-26T04:29:49.266Z,1018.33
2018-05-26T04:30:49.265Z,1018.35
2018-05-26T04:31:49.269Z,1018.36
2018-05-26T04:32:49.265Z,1018.31
2018-05-26T04:33:49.266Z,1018.33
2018-05-26T04:34:49.266Z,1018.33
2018-05-26T04:35:49.271Z,1018.37
2018-05-26T04:36:49.271Z,1018.39
2018-05-26T04:37:49.266Z,1018.37
2018-05-26T04:38:49.270Z,1018.35
2018-05-26T04:39:49.269Z,1018.37
2018-05-26T04:40:49.264Z,1018.43
2018-05-26T04:41:49.269Z,1018.44
2018-05-26T04:42:49.265Z,1018.49
2018-05-26T04:43:49.270Z,1018.46
2018-05-26T04:44:49.272Z,1018.46
2018-05-26T04:45:49.273Z,1018.48
2018-05-26T04:46:49.274Z,1018.45
2018-05-26T04:47:49.275Z,1018.44
2018-05-26T04:48:49.274Z,1018.44
2018-05-26T04:49:49.275Z,1018.44
2018-05-26T04:50:49.275Z,1018.41
2018-05-26T04:51:49.277Z,1018.48
2018-05-26T04:52:49.277Z,1018.45
2018-05-26T04:53:49.283Z,1018.51
2018-05-26T04:54:49.281Z,1018.46
2018-05-26T04:55:49.275Z,1018.50
2018-05-26T04:56:49.280Z,1018.52
2018-05-26T04:57:49.280Z,1018.54
2018-05-26T04:58:49.284Z,1018.55
2018-05-26T04:59:49.279Z,1018.51
2018-05-26T05:00:49.281Z,1018.53
2018-05-26T05:01:49.285Z,1018.54
2018-05-26T05:02:49.287Z,1018.57
2018-05-26T05:03:49.285Z,1018.57
2018-05-26T05:04:49.289Z,1018.54
2018-05-26T05:05:49.287Z,1018.61
2018-05-26T05:06:49.294Z,1018.58
2018-05-26T05:07:49.292Z,1018.59
2018-05-26T05:08:49.291Z,1018.59
2018-05-26T05:09:49.289Z,1018.62
2018-05-26T05:10:49.295Z,1018.61
2018-05-26T05:11:49.301Z,1018.63
2018-05-26T05:12:49.296Z,1018.69
2018-05-26T05:13:49.296Z,1018.69
2018-05-26T05:14:49.298Z,1018.67
2018-05-26T05:15:49.306Z,1018.71
2018-05-26T05:16:49.306Z,1018.71
2018-05-26T05:17:49.304Z,1018.72
2018-05-26T05:18:49.301Z,1018.71
2018-05-26T05:19:49.304Z,1018.71
2018-05-26T05:20:49.308Z,1018.79
2018-05-26T05:21:49.309Z,1018.73
2018-05-26T05:22:49.314Z,1018.70
2018-05-26T05:23:49.312Z,1018.68
2018-05-26T05:24:49.313Z,1018.71
2018-05-26T05:25:49.314Z,1018.72
2018-05-26T05:26:49.339Z,1018.74
2018-05-26T05:27:49.319Z,1018.72
2018-05-26T05:28:49.321Z,1018.75
2018-05-26T05:29:49.326Z,1018.78
2018-05-26T05:30:49.326Z,1018.77
2018-05-26T05:31:49.326Z,1018.76
2018-05-26T05:32:49.342Z,1018.77
2018-05-26T05:33:49.331Z,1018.73
2018-05-26T05:34:49.333Z,1018.76
2018-05-26T05:35:49.337Z,1018.78
2018-05-26T05:36:49.336Z,1018.78
2018-05-26T05:37:49.338Z,1018.76
2018-05-26T05:38:49.340Z,1018.77
2018-05-26T05:39:49.346Z,1018.81
2018-05-26T05:40:49.345Z,1018.78
2018-05-26T05:41:49.348Z,1018.81
2018-05-26T05:42:49.353Z,1018.81
2018-05-26T05:43:49.352Z,1018.87
2018-05-26T05:44:49.354Z,1018.86
2018-05-26T05:45:49.357Z,1018.85
2018-05-26T05:46:49.361Z,1018.84
2018-05-26T05:47:49.364Z,1018.87
2018-05-26T05:48:49.365Z,1018.84
2018-05-26T05:49:49.370Z,1018.82
2018-05-26T05:50:49.371Z,1018.86
2018-05-26T05:51:49.376Z,1018.85
2018-05-26T05:52:49.375Z,1018.85
2018-05-26T05:53:49.382Z,1018.86
2018-05-26T05:54:49.386Z,1018.85
2018-05-26T05:55:49.384Z,1018.85
2018-05-26T05:56:49.388Z,1018.84
2018-05-26T05:57:49.392Z,1018.82
2018-05-26T05:58:49.394Z,1018.81
2018-05-26T05:59:49.395Z,1018.81
2018-05-26T06:00:49.396Z,1018.88
2018-05-26T06:01:49.404Z,1018.83
2018-05-26T06:02:49.404Z,1018.88
2018-05-26T06:03:49.406Z,1018.85
2018-05-26T06:04:49.410Z,1018.82
2018-05-26T06:05:49.412Z,1018.79
2018-05-26T06:06:49.415Z,1018.80
2018-05-26T06:07:49.419Z,1018.76
2018-05-26T06:08:49.425Z,1018.76
2018-05-26T06:09:49.427Z,1018.78
2018-05-26T06:10:49.430Z,1018.81
2018-05-26T06:11:49.432Z,1018.80
2018-05-26T06:12:49.439Z,1018.80
2018-05-26T06:13:49.441Z,1018.78
2018-05-26T06:14:49.466Z,1018.78
2018-05-26T06:15:49.458Z,1018.77
2018-05-26T06:16:49.454Z,1018.79
2018-05-26T06:17:49.455Z,1018.81
2018-05-26T06:18:49.458Z,1018.80
2018-05-26T06:19:49.462Z,1018.80
2018-05-26T06:20:49.466Z,1018.81
2018-05-26T06:21:49.468Z,1018.83
2018-05-26T06:22:49.473Z,1018.82
2018-05-26T06:23:49.483Z,1018.84
2018-05-26T06:24:49.486Z,1018.85
2018-05-26T06:25:49.493Z,1018.87
2018-05-26T06:26:49.489Z,1018.87
2018-05-26T06:27:49.493Z,1018.84
2018-05-26T06:28:49.499Z,1018.86
2018-05-26T06:29:49.501Z,1018.83
2018-05-26T06:30:49.507Z,1018.83
2018-05-26T06:31:49.563Z,1018.83
2018-05-26T06:32:49.519Z,1018.84
2018-05-26T06:33:49.531Z,1018.85
2018-05-26T06:34:49.526Z,1018.85
2018-05-26T06:35:49.573Z,1018.86
2018-05-26T06:36:49.532Z,1018.83
2018-05-26T06:37:49.539Z,1018.86
2018-05-26T06:38:49.544Z,1018.80
2018-05-26T06:39:49.549Z,1018.89
2018-05-26T06:40:49.554Z,1018.89
2018-05-26T06:41:49.558Z,1018.91
2018-05-26T06:42:49.560Z,1018.92
2018-05-26T06:43:49.565Z,1018.96
2018-05-26T06:44:49.583Z,1018.97
2018-05-26T06:45:49.582Z,1018.96
2018-05-26T06:46:49.584Z,1019.00
2018-05-26T06:47:49.588Z,1019.01
2018-05-26T06:48:49.596Z,1018.99
2018-05-26T06:49:49.604Z,1018.97
2018-05-26T06:50:49.607Z,1019.00
2018-05-26T06:51:49.612Z,1018.97
2018-05-26T06:52:49.619Z,1018.93
2018-05-26T06:53:49.625Z,1018.94
2018-05-26T06:54:49.631Z,1018.95
2018-05-26T06:55:49.637Z,1018.93
2018-05-26T06:56:49.651Z,1018.95
2018-05-26T06:57:49.649Z,1018.97
2018-05-26T06:58:49.654Z,1018.98
2018-05-26T06:59:49.660Z,1019.02
2018-05-26T07:00:49.668Z,1018.99
2018-05-26T07:01:49.674Z,1018.97
2018-05-26T07:02:49.680Z,1019.01
2018-05-26T07:03:49.682Z,1018.95
2018-05-26T07:04:49.693Z,1018.94
2018-05-26T07:05:49.699Z,1018.93
2018-05-26T07:06:49.708Z,1018.94
2018-05-26T07:07:49.710Z,1018.93
2018-05-26T07:08:49.718Z,1018.90
2018-05-26T07:09:49.725Z,1018.91
2018-05-26T07:10:49.758Z,1018.85
2018-05-26T07:11:49.740Z,1018.82
2018-05-26T07:12:49.748Z,1018.82
2018-05-26T07:13:49.753Z,1018.86
2018-05-26T07:14:49.760Z,1018.84
2018-05-26T07:15:49.764Z,1018.82
2018-05-26T07:16:49.772Z,1018.84
2018-05-26T07:17:49.781Z,1018.84
2018-05-26T07:18:49.788Z,1018.83
2018-05-26T07:19:49.795Z,1018.84
2018-05-26T07:20:49.804Z,1018.87
2018-05-26T07:21:49.810Z,1018.85
2018-05-26T07:22:49.821Z,1018.88
2018-05-26T07:23:49.825Z,1018.84
2018-05-26T07:24:49.834Z,1018.89
2018-05-26T07:25:49.841Z,1018.87
2018-05-26T07:26:49.857Z,1018.88
2018-05-26T07:27:49.894Z,1018.85
2018-05-26T07:28:49.865Z,1018.83
2018-05-26T07:29:49.871Z,1018.78
2018-05-26T07:30:49.879Z,1018.78
2018-05-26T07:31:49.886Z,1018.77
2018-05-26T07:32:49.893Z,1018.75
2018-05-26T07:33:49.963Z,1018.66
2018-05-26T07:34:49.909Z,1018.72
2018-05-26T07:35:49.916Z,1018.73
2018-05-26T07:36:49.924Z,1018.72
2018-05-26T07:37:49.937Z,1018.77
2018-05-26T07:38:49.944Z,1018.77
2018-05-26T07:39:49.954Z,1018.76
2018-05-26T07:40:49.962Z,1018.78
2018-05-26T07:41:49.972Z,1018.72
2018-05-26T07:42:49.979Z,1018.78
2018-05-26T07:43:49.986Z,1018.80
2018-05-26T07:44:49.999Z,1018.81
2018-05-26T07:45:50.005Z,1018.79
2018-05-26T07:46:50.020Z,1018.74
2018-05-26T07:47:50.023Z,1018.74
2018-05-26T07:48:50.033Z,1018.72
2018-05-26T07:49:50.041Z,1018.72
2018-05-26T07:50:50.067Z,1018.71
2018-05-26T07:51:50.059Z,1018.70
2018-05-26T07:52:50.067Z,1018.73
2018-05-26T07:53:50.125Z,1018.71
2018-05-26T07:54:50.092Z,1018.71
2018-05-26T07:55:50.098Z,1018.72
2018-05-26T07:56:50.105Z,1018.73
2018-05-26T07:57:50.188Z,1018.71
2018-05-26T07:58:50.157Z,1018.75
2018-05-26T07:59:50.135Z,1018.74
2018-05-26T08:00:50.193Z,1018.76
2018-05-26T08:01:50.148Z,1018.75
2018-05-26T08:02:50.160Z,1018.81
2018-05-26T08:03:50.168Z,1018.79
2018-05-26T08:04:50.176Z,1018.83
2018-05-26T08:05:50.186Z,1018.86
2018-05-26T08:06:50.197Z,1018.79
2018-05-26T08:07:50.213Z,1018.83
2018-05-26T08:08:50.216Z,1018.89
2018-05-26T08:09:50.227Z,1018.88
2018-05-26T08:10:50.265Z,1018.90
2018-05-26T08:11:50.242Z,1018.91
2018-05-26T08:12:50.266Z,1018.91
2018-05-26T08:13:50.264Z,1018.92
2018-05-26T08:14:50.274Z,1018.86
2018-05-26T08:15:50.286Z,1018.93
2018-05-26T08:16:50.290Z,1018.92
2018-05-26T08:17:50.301Z,1018.95
2018-05-26T08:18:50.308Z,1018.92
2018-05-26T08:19:50.321Z,1018.95
2018-05-26T08:20:50.336Z,1018.96
2018-05-26T08:21:50.342Z,1018.97
2018-05-26T08:22:50.354Z,1018.96
2018-05-26T08:23:50.365Z,1018.97
2018-05-26T08:24:50.374Z,1019.00
2018-05-26T08:25:50.384Z,1019.02
2018-05-26T08:26:50.395Z,1019.01
2018-05-26T08:27:50.404Z,1019.02
2018-05-26T08:28:50.422Z,1019.03
2018-05-26T08:29:50.430Z,1019.05
2018-05-26T08:30:50.439Z,1018.99
2018-05-26T08:31:50.445Z,1019.01
2018-05-26T08:32:50.459Z,1018.98
2018-05-26T08:33:50.515Z,1018.98
2018-05-26T08:34:50.482Z,1018.99
2018-05-26T08:35:50.489Z,1019.05
2018-05-26T08:36:50.499Z,1019.08
2018-05-26T08:37:50.510Z,1019.06
2018-05-26T08:38:50.521Z,1019.04
2018-05-26T08:39:50.531Z,1019.04
2018-05-26T08:40:50.544Z,1019.06
2018-05-26T08:41:50.553Z,1019.03
2018-05-26T08:42:50.562Z,1019.02
2018-05-26T08:43:50.576Z,1019.03
2018-05-26T08:44:50.584Z,1018.98
2018-05-26T08:45:50.600Z,1019.03
2018-05-26T08:46:50.608Z,1019.05
2018-05-26T08:47:50.622Z,1019.01
2018-05-26T08:48:50.633Z,1019.02
2018-05-26T08:49:50.644Z,1019.04
2018-05-26T08:50:50.656Z,1019.05
2018-05-26T08:51:50.665Z,1019.07
2018-05-26T08:52:50.674Z,1019.09
2018-05-26T08:53:50.693Z,1019.07
2018-05-26T08:54:50.702Z,1019.01
2018-05-26T08:55:50.713Z,1018.94
2018-05-26T08:56:50.725Z,1018.86
2018-05-26T08:57:50.733Z,1018.88
2018-05-26T08:58:50.744Z,1018.92
2018-05-26T08:59:50.751Z,1018.86
2018-05-26T09:00:50.762Z,1018.88
2018-05-26T09:01:50.773Z,1018.94
2018-05-26T09:02:50.782Z,1018.91
2018-05-26T09:03:50.792Z,1018.86
2018-05-26T09:04:50.803Z,1018.85
2018-05-26T09:05:50.811Z,1018.83
2018-05-26T09:06:50.817Z,1018.85
2018-05-26T09:07:50.828Z,1018.84
2018-05-26T09:08:50.835Z,1018.80
2018-05-26T09:09:50.865Z,1018.80
2018-05-26T09:10:50.889Z,1018.81
2018-05-26T09:11:50.858Z,1018.78
2018-05-26T09:12:50.867Z,1018.83
2018-05-26T09:13:50.877Z,1018.80
2018-05-26T09:14:50.897Z,1018.82
2018-05-26T09:15:50.887Z,1018.86
2018-05-26T09:16:50.894Z,1018.80
2018-05-26T09:17:50.945Z,1018.81
2018-05-26T09:18:50.908Z,1018.77
2018-05-26T09:19:50.916Z,1018.78
2018-05-26T09:20:50.922Z,1018.78
2018-05-26T09:21:50.938Z,1018.74
2018-05-26T09:22:50.934Z,1018.77
2018-05-26T09:23:50.949Z,1018.77
2018-05-26T09:24:50.948Z,1018.78
2018-05-26T09:25:50.953Z,1018.74
2018-05-26T09:26:50.960Z,1018.73
2018-05-26T09:27:50.965Z,1018.72
2018-05-26T09:28:50.970Z,1018.73
2018-05-26T09:29:50.977Z,1018.72
2018-05-26T09:30:50.982Z,1018.73
2018-05-26T09:31:50.987Z,1018.72
2018-05-26T09:32:50.995Z,1018.81
2018-05-26T09:33:51.005Z,1018.74
2018-05-26T09:34:51.010Z,1018.79
2018-05-26T09:35:51.012Z,1018.72
2018-05-26T09:36:51.020Z,1018.70
2018-05-26T09:37:51.024Z,1018.73
2018-05-26T09:38:51.034Z,1018.67
2018-05-26T09:39:51.037Z,1018.71
2018-05-26T09:40:51.038Z,1018.70
2018-05-26T09:41:51.043Z,1018.64
2018-05-26T09:42:51.056Z,1018.64
2018-05-26T09:43:51.054Z,1018.64
2018-05-26T09:44:51.059Z,1018.66
2018-05-26T09:45:51.065Z,1018.65
2018-05-26T09:46:51.070Z,1018.62
2018-05-26T09:47:51.074Z,1018.60
2018-05-26T09:48:51.080Z,1018.60
2018-05-26T09:49:51.098Z,1018.58
2018-05-26T09:50:51.090Z,1018.63
2018-05-26T09:51:51.090Z,1018.61
2018-05-26T09:52:51.099Z,1018.59
2018-05-26T09:53:51.103Z,1018.55
2018-05-26T09:54:51.159Z,1018.57
2018-05-26T09:55:51.112Z,1018.58
2018-05-26T09:56:51.121Z,1018.59
2018-05-26T09:57:51.123Z,1018.53
2018-05-26T09:58:51.131Z,1018.54
2018-05-26T09:59:51.137Z,1018.53
2018-05-26T10:00:51.143Z,1018.51
2018-05-26T10:01:51.149Z,1018.49
2018-05-26T10:02:51.149Z,1018.46
2018-05-26T10:03:51.154Z,1018.47
2018-05-26T10:04:51.161Z,1018.50
2018-05-26T10:05:51.164Z,1018.45
2018-05-26T10:06:51.171Z,1018.46
2018-05-26T10:07:51.173Z,1018.45
2018-05-26T10:08:51.176Z,1018.44
2018-05-26T10:09:51.181Z,1018.43
2018-05-26T10:10:51.186Z,1018.42
2018-05-26T10:11:51.191Z,1018.48
2018-05-26T10:12:51.195Z,1018.41
2018-05-26T10:13:51.197Z,1018.41
2018-05-26T10:14:51.204Z,1018.44
2018-05-26T10:15:51.209Z,1018.45
2018-05-26T10:16:51.216Z,1018.40
2018-05-26T10:17:51.221Z,1018.44
2018-05-26T10:18:51.220Z,1018.43
2018-05-26T10:19:51.254Z,1018.40
2018-05-26T10:20:51.245Z,1018.42
2018-05-26T10:21:51.235Z,1018.47
2018-05-26T10:22:51.240Z,1018.45
2018-05-26T10:23:51.245Z,1018.45
2018-05-26T10:24:51.251Z,1018.40
2018-05-26T10:25:51.260Z,1018.41
2018-05-26T10:26:51.263Z,1018.36
2018-05-26T10:27:51.267Z,1018.34
2018-05-26T10:28:51.269Z,1018.37
2018-05-26T10:29:51.274Z,1018.37
2018-05-26T10:30:51.283Z,1018.43
2018-05-26T10:31:51.283Z,1018.48
2018-05-26T10:32:51.289Z,1018.47
2018-05-26T10:33:51.295Z,1018.50
2018-05-26T10:34:51.302Z,1018.48
2018-05-26T10:35:51.309Z,1018.49
2018-05-26T10:36:51.314Z,1018.44
2018-05-26T10:37:51.317Z,1018.37
2018-05-26T10:38:51.323Z,1018.42
2018-05-26T10:39:51.326Z,1018.47
2018-05-26T10:40:51.333Z,1018.48
2018-05-26T10:41:51.337Z,1018.41
2018-05-26T10:42:51.343Z,1018.39
2018-05-26T10:43:51.348Z,1018.39
2018-05-26T10:44:51.352Z,1018.40
2018-05-26T10:45:51.356Z,1018.41
2018-05-26T10:46:51.363Z,1018.40
2018-05-26T10:47:51.367Z,1018.35
2018-05-26T10:48:51.373Z,1018.40
2018-05-26T10:49:51.379Z,1018.32
2018-05-26T10:50:51.383Z,1018.29
2018-05-26T10:51:51.394Z,1018.32
2018-05-26T10:52:51.396Z,1018.34
2018-05-26T10:53:51.396Z,1018.33
2018-05-26T10:54:51.404Z,1018.29
2018-05-26T10:55:51.439Z,1018.30
2018-05-26T10:56:51.422Z,1018.26
2018-05-26T10:57:51.425Z,1018.26
2018-05-26T10:58:51.425Z,1018.22
2018-05-26T10:59:51.427Z,1018.14
2018-05-26T11:00:51.436Z,1018.18
2018-05-26T11:01:51.443Z,1018.22
2018-05-26T11:02:51.448Z,1018.18
2018-05-26T11:03:51.454Z,1018.18
2018-05-26T11:04:51.460Z,1018.13
2018-05-26T11:05:51.461Z,1018.17
2018-05-26T11:06:51.467Z,1018.18
2018-05-26T11:07:51.471Z,1018.20
2018-05-26T11:08:51.478Z,1018.16
2018-05-26T11:09:51.483Z,1018.19
2018-05-26T11:10:51.488Z,1018.15
2018-05-26T11:11:51.494Z,1018.16
2018-05-26T11:12:51.495Z,1018.19
2018-05-26T11:13:51.500Z,1018.17
2018-05-26T11:14:51.513Z,1018.18
2018-05-26T11:15:51.514Z,1018.20
2018-05-26T11:16:51.523Z,1018.19
2018-05-26T11:17:51.625Z,1018.23
2018-05-26T11:18:51.534Z,1018.24
2018-05-26T11:19:51.536Z,1018.22
2018-05-26T11:20:51.547Z,1018.16
2018-05-26T11:21:51.549Z,1018.20
2018-05-26T11:22:51.552Z,1018.19
2018-05-26T11:23:51.561Z,1018.17
2018-05-26T11:24:51.640Z,1018.20
2018-05-26T11:25:51.565Z,1018.16
2018-05-26T11:26:51.572Z,1018.18
2018-05-26T11:27:51.578Z,1018.14
2018-05-26T11:28:51.633Z,1018.14
2018-05-26T11:29:51.611Z,1018.14
2018-05-26T11:30:51.624Z,1018.17
2018-05-26T11:31:51.603Z,1018.16
2018-05-26T11:32:51.609Z,1018.18
2018-05-26T11:33:51.615Z,1018.18
2018-05-26T11:34:51.627Z,1018.17
2018-05-26T11:35:51.631Z,1018.25
2018-05-26T11:36:51.633Z,1018.23
2018-05-26T11:37:51.640Z,1018.22
2018-05-26T11:38:51.645Z,1018.23
2018-05-26T11:39:51.657Z,1018.18
2018-05-26T11:40:51.658Z,1018.18
2018-05-26T11:41:51.670Z,1018.19
2018-05-26T11:42:51.666Z,1018.16
2018-05-26T11:43:51.672Z,1018.16
2018-05-26T11:44:51.678Z,1018.16
2018-05-26T11:45:51.685Z,1018.15
2018-05-26T11:46:51.691Z,1018.15
2018-05-26T11:47:51.695Z,1018.14
2018-05-26T11:48:51.702Z,1018.16
2018-05-26T11:49:51.715Z,1018.15
2018-05-26T11:50:51.712Z,1018.11
2018-05-26T11:51:51.717Z,1018.14
2018-05-26T11:52:51.729Z,1018.15
2018-05-26T11:53:51.730Z,1018.13
2018-05-26T11:54:51.737Z,1018.11
2018-05-26T11:55:51.744Z,1018.09
2018-05-26T11:56:51.745Z,1018.06
2018-05-26T11:57:51.750Z,1018.04
2018-05-26T11:58:51.757Z,1018.01
2018-05-26T11:59:51.761Z,1017.97
2018-05-26T12:00:51.767Z,1017.97
2018-05-26T12:01:51.785Z,1017.98
2018-05-26T12:02:51.780Z,1018.00
2018-05-26T12:03:51.783Z,1017.95
2018-05-26T12:04:51.790Z,1017.96
2018-05-26T12:05:51.795Z,1017.94